METAR Formatted Surface Weather Observation
Issued by NWS

Home | Current Version | Previous Version | Text Only | Print | Product List | Glossary On
Versions: 1 2 3 4 5 6 7 8 9 10 11 12 13
000
SAUS42 KRAH 250358
MTRNJM
METAR KNJM 250357Z AUTO 05003KT 10SM CLR 26/22 A3019 RMK AO2 SLP227
T02560217



USA.gov is the U.S. government's official web portal to all federal, state and local government web resources and services.